Date,TemperatureHighF,TemperatureAvgF,TemperatureLowF,DewpointHighF,DewpointAvgF,DewpointLowF,HumidityHigh,HumidityAvg,HumidityLow,PressureMaxIn,PressureMinIn,WindSpeedMaxMPH,WindSpeedAvgMPH,GustSpeedMaxMPH,PrecipitationSumIn
2014-2-1,73.2,58.4,42.4,62.6,54.2,40.3,94,87,68,30.04,29.96,13,3,16,0.00
2014-2-2,69.6,64.8,61.2,68.2,63.4,59.4,96,95,94,30.01,29.87,16,4,18,0.15
2014-2-3,69.8,44.9,39.6,68.2,42.3,37.9,95,91,84,30.12,29.89,15,2,20,0.21
2014-2-4,68.4,54.6,41.2,66.9,52.9,39.6,97,94,89,30.07,29.78,26,4,26,1.15
2014-2-5,58.8,45.5,37.8,56.7,39.8,31.5,93,81,65,30.29,29.92,16,3,17,0.00
2014-2-6,37.8,33.5,29.8,31.8,28.8,26.8,92,83,72,30.37,30.23,17,2,20,0.08
2014-2-7,56.5,42.3,28.6,41.9,34.6,26.1,93,75,52,30.33,30.15,12,2,14,0.00
2014-2-8,66.6,50.4,39.6,51.1,42.9,35.8,92,76,56,30.21,30.08,9,1,10,0.00
2014-2-9,72.5,55.9,42.6,57.6,50.3,40.8,95,83,57,30.15,30.01,11,1,15,0.00
2014-2-10,65.1,54.2,46.6,60.4,52.1,44.6,96,93,82,30.09,29.99,12,1,13,0.02
2014-2-11,46.6,40.3,36.9,44.6,38.5,35.1,94,93,92,30.11,29.96,14,3,18,1.32
2014-2-12,40.1,36.6,35.6,38.7,34.2,32.9,95,91,90,29.97,29.90,16,-23,17,0.53
2014-2-13,58.3,43.0,33.6,43.3,36.3,30.9,91,79,52,30.05,29.92,12,1,17,0.00
2014-2-14,63.3,50.4,30.6,55.2,44.1,28.8,95,80,51,29.99,29.81,22,4,24,0.00
2014-2-15,66.6,49.4,39.4,51.6,36.4,30.4,88,63,30,30.18,29.91,15,1,16,0.00
2014-2-16,71.8,53.9,35.2,56.7,46.8,33.4,95,78,57,30.16,30.05,13,1,14,0.00
2014-2-17,75.4,64.1,52.5,63.0,58.2,50.2,94,82,61,30.11,30.02,19,3,20,0.00
2014-2-18,74.8,65.9,59.5,65.1,62.1,57.6,96,88,70,30.13,30.02,13,2,16,0.00
2014-2-19,80.4,68.3,62.8,66.9,63.6,61.3,96,86,61,30.06,29.92,18,2,19,0.00
2014-2-20,81.1,70.6,64.8,70.3,66.7,63.1,95,88,68,29.94,29.80,25,6,31,0.18
2014-2-21,70.9,56.2,43.2,68.7,40.4,29.7,93,60,27,30.10,29.82,27,3,31,0.75
2014-2-22,68.2,54.9,43.2,49.1,39.5,33.8,84,59,30,30.14,29.96,13,1,14,0.00
2014-2-23,67.3,60.4,54.7,64.8,58.2,49.8,96,92,83,30.00,29.89,9,0,9,0.39
2014-2-24,76.3,63.9,55.9,61.2,56.7,50.7,95,79,53,30.11,29.97,15,2,15,0.00
2014-2-25,74.8,63.8,55.2,64.4,59.5,53.2,94,86,68,30.05,29.86,7,0,7,0.38
2014-2-26,63.1,47.3,37.6,61.3,42.2,30.2,94,83,66,30.04,29.81,20,4,22,0.78
2014-2-27,56.7,42.0,27.9,30.7,24.4,18.7,82,54,28,30.11,29.97,13,2,19,0.00
2014-2-28,55.0,54.2,53.1,49.3,48.5,47.7,83,81,80,30.03,30.00,5,0,6,0.00